createdAt,value
2022-07-31T00:02:09.477Z,31.71
2022-07-31T00:04:37.374Z,31.70
2022-07-31T00:07:05.077Z,31.68
2022-07-31T00:09:52.422Z,31.68
2022-07-31T00:12:22.857Z,31.60
2022-07-31T00:14:52.117Z,31.56
2022-07-31T00:24:45.629Z,31.45
2022-07-31T00:27:13.962Z,31.40
2022-07-31T00:29:43.142Z,31.39
2022-07-31T00:32:12.860Z,31.36
2022-07-31T00:34:42.142Z,31.29
2022-07-31T00:37:10.240Z,31.20
2022-07-31T00:39:38.270Z,31.18
2022-07-31T00:42:06.317Z,31.12
2022-07-31T00:49:38.053Z,31.08
2022-07-31T00:52:06.331Z,31.09
2022-07-31T00:54:35.387Z,31.07
2022-07-31T00:57:05.011Z,31.08
2022-07-31T00:59:33.911Z,31.07
2022-07-31T01:02:03.074Z,31.04
2022-07-31T01:04:31.780Z,31.01
2022-07-31T01:07:02.887Z,30.95
2022-07-31T01:14:47.891Z,30.90
2022-07-31T01:17:17.199Z,30.84
2022-07-31T01:19:46.974Z,30.81
2022-07-31T01:22:53.813Z,30.84
2022-07-31T01:25:43.619Z,30.87
2022-07-31T01:28:53.735Z,30.91
2022-07-31T01:31:37.588Z,30.90
2022-07-31T01:39:33.734Z,30.87
2022-07-31T01:42:07.680Z,30.90
2022-07-31T01:44:43.382Z,30.88
2022-07-31T01:47:16.718Z,30.86
2022-07-31T01:49:46.211Z,30.82
2022-07-31T01:52:15.153Z,30.78
2022-07-31T01:54:45.385Z,30.75
2022-07-31T02:05:36.058Z,30.70
2022-07-31T02:08:06.509Z,30.69
2022-07-31T02:10:36.389Z,30.67
2022-07-31T02:13:05.526Z,30.68
2022-07-31T02:15:36.362Z,30.64
2022-07-31T02:18:06.001Z,30.60
2022-07-31T02:20:34.476Z,30.57
2022-07-31T02:30:52.563Z,30.55
2022-07-31T02:33:23.474Z,30.55
2022-07-31T02:35:53.860Z,30.59
2022-07-31T02:38:26.770Z,30.59
2022-07-31T02:41:00.489Z,30.59
2022-07-31T02:43:34.670Z,30.59
2022-07-31T02:46:15.733Z,30.57
2022-07-31T02:54:35.243Z,30.48
2022-07-31T02:57:04.341Z,30.46
2022-07-31T02:59:36.832Z,30.44
2022-07-31T03:02:05.966Z,30.45
2022-07-31T03:04:39.754Z,30.46
2022-07-31T03:07:09.837Z,30.48
2022-07-31T03:09:38.496Z,30.50
2022-07-31T03:15:05.397Z,30.51
2022-07-31T03:17:38.404Z,30.47
2022-07-31T03:20:15.349Z,30.46
2022-07-31T03:22:45.676Z,30.46
2022-07-31T03:25:21.862Z,30.46
2022-07-31T03:27:56.299Z,30.48
2022-07-31T03:30:25.621Z,30.53
2022-07-31T03:35:44.645Z,30.47
2022-07-31T03:38:39.222Z,30.49
2022-07-31T03:41:04.736Z,30.48
2022-07-31T03:43:44.280Z,30.45
2022-07-31T03:46:25.467Z,30.43
2022-07-31T03:48:54.519Z,30.45
2022-07-31T03:51:25.739Z,30.47
2022-07-31T03:59:27.445Z,30.33
2022-07-31T04:02:06.023Z,30.31
2022-07-31T04:04:39.422Z,30.32
2022-07-31T04:07:06.930Z,30.31
2022-07-31T04:09:34.371Z,30.27
2022-07-31T04:12:05.141Z,30.24
2022-07-31T04:14:34.484Z,30.24
2022-07-31T04:17:04.586Z,30.26
2022-07-31T04:24:38.754Z,30.37
2022-07-31T04:27:24.637Z,30.35
2022-07-31T04:29:55.901Z,30.36
2022-07-31T04:32:24.433Z,30.34
2022-07-31T04:35:04.175Z,30.33
2022-07-31T04:37:34.001Z,30.31
2022-07-31T04:44:54.156Z,30.32
2022-07-31T04:47:23.815Z,30.33
2022-07-31T04:49:53.025Z,30.30
2022-07-31T04:52:23.210Z,30.23
2022-07-31T04:54:53.212Z,30.20
2022-07-31T04:57:22.315Z,30.20
2022-07-31T04:59:57.921Z,30.19
2022-07-31T05:02:34.486Z,30.14
2022-07-31T05:10:34.201Z,30.11
2022-07-31T05:13:04.229Z,30.11
2022-07-31T05:15:34.182Z,30.08
2022-07-31T05:18:03.848Z,30.04
2022-07-31T05:20:40.223Z,30.01
2022-07-31T05:23:26.553Z,29.99
2022-07-31T05:26:16.530Z,30.01
2022-07-31T05:31:59.966Z,30.02
2022-07-31T05:34:34.313Z,30.04
2022-07-31T05:37:03.975Z,30.05
2022-07-31T05:39:34.384Z,30.07
2022-07-31T05:42:20.348Z,30.07
2022-07-31T05:45:20.477Z,30.08
2022-07-31T05:52:34.624Z,30.07
2022-07-31T05:55:23.917Z,30.07
2022-07-31T05:58:07.885Z,30.08
2022-07-31T06:00:36.980Z,30.08
2022-07-31T06:03:05.512Z,30.08
2022-07-31T06:05:53.701Z,30.05
2022-07-31T06:08:22.951Z,30.03
2022-07-31T06:13:47.428Z,30.35
2022-07-31T06:16:29.235Z,30.15
2022-07-31T06:18:56.756Z,30.10
2022-07-31T06:21:30.145Z,30.08
2022-07-31T06:24:00.139Z,30.06
2022-07-31T06:26:39.200Z,30.04
2022-07-31T06:29:07.227Z,30.03
2022-07-31T06:39:24.762Z,29.91
2022-07-31T06:42:35.244Z,29.88
2022-07-31T06:45:05.924Z,29.87
2022-07-31T06:47:55.078Z,29.89
2022-07-31T06:50:40.529Z,29.88
2022-07-31T06:53:33.212Z,29.87
2022-07-31T06:58:40.646Z,29.89
2022-07-31T07:01:10.134Z,29.89
2022-07-31T07:03:37.949Z,29.92
2022-07-31T07:06:05.749Z,29.94
2022-07-31T07:08:35.086Z,29.94
2022-07-31T07:11:04.593Z,29.92
2022-07-31T07:13:44.903Z,29.92
2022-07-31T07:18:55.963Z,29.91
2022-07-31T07:21:24.877Z,29.88
2022-07-31T07:23:54.460Z,29.91
2022-07-31T07:26:32.516Z,29.90
2022-07-31T07:29:04.217Z,29.91
2022-07-31T07:31:33.882Z,29.95
2022-07-31T07:36:51.795Z,30.03
2022-07-31T07:39:24.901Z,30.05
2022-07-31T07:41:56.522Z,30.04
2022-07-31T07:44:24.882Z,29.99
2022-07-31T07:46:54.908Z,29.95
2022-07-31T07:49:23.700Z,29.94
2022-07-31T07:52:05.481Z,29.94
2022-07-31T08:00:10.772Z,29.84
2022-07-31T08:03:46.665Z,29.79
2022-07-31T08:05:40.752Z,29.80
2022-07-31T08:08:10.285Z,29.78
2022-07-31T08:10:56.966Z,29.78
2022-07-31T08:13:40.672Z,29.79
2022-07-31T08:20:34.327Z,29.76
2022-07-31T08:23:04.188Z,29.76
2022-07-31T08:25:32.874Z,29.75
2022-07-31T08:28:04.340Z,29.73
2022-07-31T08:30:35.625Z,29.71
2022-07-31T08:33:05.033Z,29.68
2022-07-31T08:35:38.860Z,29.69
2022-07-31T08:46:17.159Z,29.60
2022-07-31T08:48:48.312Z,29.60
2022-07-31T08:51:17.109Z,29.61
2022-07-31T08:54:08.075Z,29.62
2022-07-31T08:56:36.475Z,29.58
2022-07-31T08:59:06.413Z,29.57
2022-07-31T09:01:36.755Z,29.55
2022-07-31T09:06:45.121Z,29.47
2022-07-31T09:09:15.323Z,29.48
2022-07-31T09:11:50.430Z,29.49
2022-07-31T09:14:36.653Z,29.46
2022-07-31T09:17:15.169Z,29.46
2022-07-31T09:19:51.655Z,29.45
2022-07-31T09:22:34.629Z,29.43
2022-07-31T09:29:03.087Z,29.37
2022-07-31T09:31:35.808Z,29.36
2022-07-31T09:34:31.037Z,29.33
2022-07-31T09:37:21.140Z,29.33
2022-07-31T09:40:09.446Z,29.27
2022-07-31T09:43:03.191Z,29.26
2022-07-31T09:45:30.826Z,29.25
2022-07-31T09:54:05.223Z,29.26
2022-07-31T09:56:55.588Z,29.20
2022-07-31T09:59:26.503Z,29.19
2022-07-31T10:01:55.410Z,29.22
2022-07-31T10:04:25.131Z,29.23
2022-07-31T10:06:55.791Z,29.23
2022-07-31T10:12:07.365Z,29.21
2022-07-31T10:14:41.046Z,29.21
2022-07-31T10:17:14.317Z,29.22
2022-07-31T10:20:06.810Z,29.21
2022-07-31T10:22:46.606Z,29.19
2022-07-31T10:25:25.077Z,29.18
2022-07-31T10:33:40.726Z,29.21
2022-07-31T10:36:18.760Z,29.11
2022-07-31T10:39:28.445Z,29.12
2022-07-31T10:42:46.748Z,29.10
2022-07-31T10:45:17.778Z,29.05
2022-07-31T10:48:11.733Z,29.04
2022-07-31T10:53:58.576Z,29.06
2022-07-31T10:56:46.377Z,29.04
2022-07-31T10:59:33.722Z,29.05
2022-07-31T11:02:37.270Z,29.13
2022-07-31T11:05:24.461Z,29.12
2022-07-31T11:08:08.169Z,29.11
2022-07-31T11:13:56.712Z,29.11
2022-07-31T11:16:55.570Z,29.10
2022-07-31T11:19:46.088Z,29.10
2022-07-31T11:22:31.370Z,29.12
2022-07-31T11:25:00.867Z,29.12
2022-07-31T11:27:34.245Z,29.14
2022-07-31T11:35:05.936Z,29.20
2022-07-31T11:37:46.480Z,29.26
2022-07-31T11:40:28.214Z,29.32
2022-07-31T11:43:25.335Z,29.39
2022-07-31T11:45:48.035Z,29.47
2022-07-31T11:48:19.163Z,29.57
2022-07-31T11:50:51.093Z,29.70
2022-07-31T11:56:19.797Z,29.92
2022-07-31T11:58:49.548Z,29.98
2022-07-31T12:01:17.989Z,29.97
2022-07-31T12:03:46.769Z,29.96
2022-07-31T12:06:19.240Z,30.04
2022-07-31T12:08:50.936Z,30.20
2022-07-31T12:13:59.558Z,30.44
2022-07-31T12:16:27.289Z,30.58
2022-07-31T12:18:58.892Z,30.70
2022-07-31T12:21:38.089Z,30.72
2022-07-31T12:24:14.718Z,30.74
2022-07-31T12:27:00.176Z,30.90
2022-07-31T12:29:35.128Z,31.04
2022-07-31T12:35:06.972Z,31.33
2022-07-31T12:37:48.399Z,31.42
2022-07-31T12:40:25.963Z,31.44
2022-07-31T12:42:55.238Z,31.49
2022-07-31T12:45:36.578Z,31.57
2022-07-31T12:48:06.077Z,31.64
2022-07-31T12:53:29.327Z,31.96
2022-07-31T12:55:57.529Z,32.00
2022-07-31T12:58:25.719Z,32.01
2022-07-31T13:00:57.006Z,32.02
2022-07-31T13:03:25.720Z,32.09
2022-07-31T13:06:14.822Z,32.09
2022-07-31T13:08:47.233Z,31.95
2022-07-31T13:15:06.076Z,31.99
2022-07-31T13:17:35.132Z,32.02
2022-07-31T13:20:04.540Z,31.88
2022-07-31T13:22:32.151Z,31.77
2022-07-31T13:25:00.130Z,31.74
2022-07-31T13:27:27.488Z,31.66
2022-07-31T13:29:56.002Z,31.67
2022-07-31T13:36:20.812Z,31.89
2022-07-31T13:38:48.238Z,32.08
2022-07-31T13:41:24.359Z,32.46
2022-07-31T13:44:00.024Z,32.51
2022-07-31T13:46:29.217Z,32.44
2022-07-31T13:48:59.246Z,32.50
2022-07-31T13:51:28.559Z,32.73
2022-07-31T13:58:58.081Z,33.19
2022-07-31T14:01:25.995Z,33.33
2022-07-31T14:04:22.804Z,33.53
2022-07-31T14:06:51.785Z,33.73
2022-07-31T14:09:21.261Z,33.76
2022-07-31T14:11:48.659Z,33.85
2022-07-31T14:14:22.929Z,34.03
2022-07-31T14:21:57.546Z,34.34
2022-07-31T14:24:26.492Z,34.01
2022-07-31T14:26:55.896Z,33.67
2022-07-31T14:29:25.375Z,33.37
2022-07-31T14:31:52.835Z,33.25
2022-07-31T14:34:20.392Z,33.46
2022-07-31T14:36:47.900Z,33.80
2022-07-31T14:41:56.007Z,34.34
2022-07-31T14:44:28.813Z,34.17
2022-07-31T14:46:59.533Z,34.09
2022-07-31T14:49:27.194Z,34.20
2022-07-31T14:52:15.787Z,33.95
2022-07-31T14:54:45.119Z,33.69
2022-07-31T14:57:19.946Z,33.59
2022-07-31T15:02:37.179Z,34.45
2022-07-31T15:06:37.679Z,34.36
2022-07-31T15:07:55.642Z,34.31
2022-07-31T15:10:24.578Z,34.28
2022-07-31T15:12:52.062Z,34.11
2022-07-31T15:15:21.193Z,33.91
2022-07-31T15:20:32.520Z,33.74
2022-07-31T15:23:02.102Z,33.95
2022-07-31T15:25:31.797Z,34.19
2022-07-31T15:28:00.749Z,34.45
2022-07-31T15:30:28.357Z,34.50
2022-07-31T15:32:56.221Z,34.36
2022-07-31T15:35:25.073Z,34.33
2022-07-31T15:46:07.063Z,35.25
2022-07-31T15:48:37.391Z,35.32
2022-07-31T15:51:09.046Z,35.13
2022-07-31T15:53:39.193Z,35.11
2022-07-31T15:56:06.971Z,35.14
2022-07-31T15:58:36.212Z,35.06
2022-07-31T16:01:05.706Z,34.98
2022-07-31T16:11:20.494Z,35.29
2022-07-31T16:13:48.093Z,35.34
2022-07-31T16:20:26.207Z,35.46
2022-07-31T16:23:02.681Z,35.27
2022-07-31T16:25:35.301Z,35.11
2022-07-31T16:28:05.418Z,35.28
2022-07-31T16:35:33.720Z,35.46
2022-07-31T16:38:05.602Z,35.48
2022-07-31T16:40:34.078Z,35.64
2022-07-31T16:43:50.927Z,35.86
2022-07-31T16:45:55.925Z,36.02
2022-07-31T16:48:24.510Z,35.97
2022-07-31T16:50:55.175Z,35.95
2022-07-31T16:58:34.826Z,36.06
2022-07-31T17:01:04.678Z,36.15
2022-07-31T17:04:01.736Z,35.94
2022-07-31T17:06:36.548Z,35.82
2022-07-31T17:09:16.241Z,36.01
2022-07-31T17:11:47.497Z,36.34
2022-07-31T17:19:05.692Z,36.06
2022-07-31T17:21:36.041Z,36.02
2022-07-31T17:24:16.084Z,36.01
2022-07-31T17:26:45.216Z,36.32
2022-07-31T17:29:14.222Z,36.55
2022-07-31T17:31:43.738Z,36.62
2022-07-31T17:34:12.765Z,36.32
2022-07-31T17:39:28.571Z,36.35
2022-07-31T17:42:00.087Z,36.36
2022-07-31T17:44:27.691Z,36.45
2022-07-31T17:46:55.614Z,36.55
2022-07-31T17:49:27.153Z,36.56
2022-07-31T17:51:58.995Z,36.59
2022-07-31T17:54:32.446Z,36.57
2022-07-31T18:02:05.025Z,36.61
2022-07-31T18:04:39.518Z,36.70
2022-07-31T18:07:07.914Z,36.63
2022-07-31T18:09:36.504Z,36.61
2022-07-31T18:12:04.889Z,36.71
2022-07-31T18:14:33.776Z,36.74
2022-07-31T18:17:05.037Z,36.78
2022-07-31T18:26:02.895Z,36.95
2022-07-31T18:28:39.266Z,36.77
2022-07-31T18:31:31.478Z,36.58
2022-07-31T18:33:55.382Z,36.45
2022-07-31T18:36:24.665Z,36.22
2022-07-31T18:38:56.151Z,36.16
2022-07-31T18:41:24.747Z,36.28
2022-07-31T18:48:07.663Z,37.00
2022-07-31T18:50:58.700Z,36.90
2022-07-31T18:53:26.404Z,36.90
2022-07-31T18:55:56.561Z,36.92
2022-07-31T18:58:24.254Z,36.93
2022-07-31T19:00:55.869Z,37.08
2022-07-31T19:03:26.712Z,37.21
2022-07-31T19:10:54.809Z,36.63
2022-07-31T19:13:24.388Z,36.27
2022-07-31T19:15:55.131Z,36.25
2022-07-31T19:18:28.050Z,36.13
2022-07-31T19:21:19.008Z,36.10
2022-07-31T19:23:44.945Z,36.39
2022-07-31T19:29:05.310Z,36.34
2022-07-31T19:31:34.492Z,36.54
2022-07-31T19:34:03.806Z,36.73
2022-07-31T19:36:34.305Z,36.72
2022-07-31T19:39:03.838Z,36.68
2022-07-31T19:41:36.302Z,36.54
2022-07-31T19:44:04.841Z,36.61
2022-07-31T19:46:36.370Z,36.81
2022-07-31T19:54:08.933Z,36.89
2022-07-31T19:56:36.839Z,36.93
2022-07-31T19:59:04.339Z,37.09
2022-07-31T20:01:35.154Z,37.07
2022-07-31T20:04:04.608Z,37.15
2022-07-31T20:06:38.351Z,37.24
2022-07-31T20:09:06.629Z,37.30
2022-07-31T20:14:56.673Z,37.18
2022-07-31T20:17:24.934Z,36.97
2022-07-31T20:20:12.529Z,36.91
2022-07-31T20:22:44.248Z,36.53
2022-07-31T20:25:20.417Z,36.54
2022-07-31T20:27:50.400Z,36.50
2022-07-31T20:30:23.984Z,36.37
2022-07-31T20:35:49.411Z,36.20
2022-07-31T20:38:19.212Z,36.13
2022-07-31T20:40:53.329Z,36.14
2022-07-31T20:43:27.960Z,35.99
2022-07-31T20:45:59.827Z,35.95
2022-07-31T20:48:33.869Z,36.08
2022-07-31T20:51:04.366Z,35.93
2022-07-31T20:58:55.325Z,35.69
2022-07-31T21:01:25.940Z,35.79
2022-07-31T21:03:57.946Z,35.89
2022-07-31T21:06:25.374Z,35.90
2022-07-31T21:08:54.746Z,35.80
2022-07-31T21:11:31.641Z,35.68
2022-07-31T21:14:04.020Z,35.56
2022-07-31T21:24:18.905Z,35.29
2022-07-31T21:26:46.819Z,35.36
2022-07-31T21:29:20.635Z,35.42
2022-07-31T21:31:50.366Z,35.36
2022-07-31T21:34:18.241Z,35.20
2022-07-31T21:36:47.820Z,35.11
2022-07-31T21:39:18.621Z,35.02
2022-07-31T21:49:35.420Z,35.24
2022-07-31T21:52:05.132Z,35.12
2022-07-31T21:54:35.697Z,34.97
2022-07-31T21:57:05.184Z,34.78
2022-07-31T21:59:37.433Z,34.66
2022-07-31T22:02:05.091Z,34.52
2022-07-31T22:04:58.188Z,34.42
2022-07-31T22:12:45.651Z,34.03
2022-07-31T22:15:17.075Z,33.87
2022-07-31T22:17:46.704Z,33.84
2022-07-31T22:20:17.664Z,33.83
2022-07-31T22:22:46.153Z,33.78
2022-07-31T22:25:16.073Z,33.66
2022-07-31T22:27:58.243Z,33.50
2022-07-31T22:33:35.527Z,33.27
2022-07-31T22:36:07.355Z,33.36
2022-07-31T22:38:37.791Z,33.43
2022-07-31T22:41:05.735Z,33.53
2022-07-31T22:44:10.795Z,33.59
2022-07-31T22:46:24.687Z,33.50
2022-07-31T22:54:13.949Z,33.30
2022-07-31T22:56:44.500Z,33.27
2022-07-31T22:59:19.367Z,33.20
2022-07-31T23:01:46.859Z,33.14
2022-07-31T23:04:15.144Z,33.01
2022-07-31T23:06:44.483Z,32.85
2022-07-31T23:09:14.066Z,32.78
2022-07-31T23:14:26.841Z,32.59
2022-07-31T23:16:56.142Z,32.59
2022-07-31T23:19:25.342Z,32.52
2022-07-31T23:21:55.383Z,32.43
2022-07-31T23:24:25.035Z,32.45
2022-07-31T23:26:54.572Z,32.36
2022-07-31T23:29:23.809Z,32.32
2022-07-31T23:36:15.283Z,32.11
2022-07-31T23:38:45.629Z,32.13
2022-07-31T23:41:35.603Z,32.17
2022-07-31T23:44:05.616Z,32.19
2022-07-31T23:46:38.123Z,32.26
2022-07-31T23:49:06.963Z,32.25
2022-07-31T23:51:35.790Z,32.22
2022-07-31T23:58:39.606Z,31.90
